| time (UTC) | temp C | wind direction | speed KPH | gust KPH | rain 1hr cm | rain 24hr cm | rain mn cm | humidity % | barometer mb |
| 20260906112000 | 27 | 118 | 6.4 | 9.7 | 0.00 | 0.00 | 0.00 | 29 | 1018.5 |
| 20260906111000 | 27 | 0 | 0.0 | 0.0 | 0.00 | 0.00 | 0.00 | 29 | 1018.5 |
| 20260906110000 | 27 | 0 | 0.0 | 0.0 | 0.00 | 0.00 | 0.00 | 28 | 1018.5 |
| 20260906105000 | 27 | 59 | 4.8 | 8.0 | 0.00 | 0.00 | 0.00 | 29 | 1018.5 |
| 20260906104000 | 27 | 261 | 6.4 | 14.5 | 0.00 | 0.00 | 0.00 | 31 | 1018.5 |
| 20260906103000 | 26 | 268 | 8.0 | 12.9 | 0.00 | 0.00 | 0.00 | 29 | 1018.5 |
| 20260906102000 | 26 | 235 | 6.4 | 14.5 | 0.00 | 0.00 | 0.00 | 30 | 1018.5 |
| 20260906101000 | 26 | 322 | 1.6 | 12.9 | 0.00 | 0.00 | 0.00 | 30 | 1019.0 |
| 20260906100001 | 26 | 273 | 8.0 | 16.1 | 0.00 | 0.00 | 0.00 | 32 | 1019.0 |
| 20260906095000 | 26 | 270 | 8.0 | 17.7 | 0.00 | 0.00 | 0.00 | 33 | 1019.0 |
| 20260906094000 | 26 | 183 | 3.2 | 9.7 | 0.00 | 0.00 | 0.00 | 33 | 1019.0 |
| 20260906093000 | 25 | 246 | 8.0 | 14.5 | 0.00 | 0.00 | 0.00 | 34 | 1019.0 |
| 20260906092000 | 25 | 254 | 6.4 | 14.5 | 0.00 | 0.00 | 0.00 | 35 | 1019.0 |
| 20260906091000 | 25 | 271 | 6.4 | 14.5 | 0.00 | 0.00 | 0.00 | 36 | 1019.0 |
| 20260906090001 | 25 | 264 | 9.7 | 14.5 | 0.00 | 0.00 | 0.00 | 37 | 1019.0 |
| 20260906085001 | 25 | 306 | 1.6 | 9.7 | 0.00 | 0.00 | 0.00 | 38 | 1019.0 |
| 20260906084001 | 25 | 277 | 12.9 | 14.5 | 0.00 | 0.00 | 0.00 | 39 | 1019.0 |
| 20260906083001 | 25 | 262 | 3.2 | 9.7 | 0.00 | 0.00 | 0.00 | 37 | 1019.0 |
| 20260906082000 | 25 | 192 | 1.6 | 12.9 | 0.00 | 0.00 | 0.00 | 38 | 1019.0 |
| 20260906081000 | 25 | 277 | 0.0 | 9.7 | 0.00 | 0.00 | 0.00 | 38 | 1019.0 |
| 20260906080001 | 25 | 61 | 1.6 | 4.8 | 0.00 | 0.00 | 0.00 | 39 | 1019.0 |
| 20260906075001 | 25 | 223 | 4.8 | 6.4 | 0.00 | 0.00 | 0.00 | 37 | 1019.0 |
| 20260906074001 | 25 | 264 | 8.0 | 11.3 | 0.00 | 0.00 | 0.00 | 40 | 1019.0 |
| 20260906073000 | 23 | 341 | 6.4 | 9.7 | 0.00 | 0.00 | 0.00 | 41 | 1019.0 |
| 20260906072001 | 23 | 271 | 9.7 | 12.9 | 0.00 | 0.00 | 0.00 | 40 | 1019.0 |
| 20260906071001 | 23 | 179 | 3.2 | 8.0 | 0.00 | 0.00 | 0.00 | 40 | 1019.5 |
| 20260906070000 | 23 | 178 | 4.8 | 8.0 | 0.00 | 0.00 | 0.00 | 42 | 1019.5 |
| 20260906065000 | 23 | 333 | 3.2 | 11.3 | 0.00 | 0.00 | 0.00 | 42 | 1019.5 |
| 20260906064000 | 23 | 326 | 4.8 | 9.7 | 0.00 | 0.00 | 0.00 | 45 | 1019.5 |
| 20260906063001 | 22 | 342 | 1.6 | 6.4 | 0.00 | 0.00 | 0.00 | 44 | 1019.5 |
| 20260906062001 | 22 | 54 | 3.2 | 6.4 | 0.00 | 0.00 | 0.00 | 49 | 1019.5 |
| 20260906061000 | 21 | 222 | 1.6 | 6.4 | 0.00 | 0.00 | 0.00 | 52 | 1019.0 |
| 20260906060001 | 18 | 247 | 0.0 | 0.0 | 0.00 | 0.00 | 0.00 | 55 | 1019.0 |
| 20260906055001 | 16 | 244 | 0.0 | 0.0 | 0.00 | 0.00 | 0.00 | 60 | 1019.0 |
| 20260906054000 | 15 | 235 | 0.0 | 0.0 | 0.00 | 0.00 | 0.00 | 61 | 1019.0 |
| 20260906053000 | 15 | 217 | 0.0 | 0.0 | 0.00 | 0.00 | 0.00 | 61 | 1019.0 |
| 20260906052000 | 13 | 235 | 0.0 | 0.0 | 0.00 | 0.00 | 0.00 | 62 | 1019.0 |
| 20260906051001 | 12 | 247 | 0.0 | 0.0 | 0.00 | 0.00 | 0.00 | 63 | 1019.0 |
| 20260906050000 | 12 | 247 | 0.0 | 0.0 | 0.00 | 0.00 | 0.00 | 63 | 1019.0 |
| 20260906045000 | 12 | 229 | 0.0 | 0.0 | 0.00 | 0.00 | 0.00 | 64 | 1019.0 |
| 20260906044000 | 12 | 247 | 0.0 | 0.0 | 0.00 | 0.00 | 0.00 | 64 | 1019.0 |
| 20260906043001 | 12 | 195 | 0.0 | 0.0 | 0.00 | 0.00 | 0.00 | 63 | 1019.0 |
| 20260906042000 | 12 | 201 | 0.0 | 0.0 | 0.00 | 0.00 | 0.00 | 62 | 1019.0 |
| 20260906041001 | 12 | 177 | 0.0 | 0.0 | 0.00 | 0.00 | 0.00 | 61 | 1019.0 |
| 20260906040001 | 12 | 24 | 0.0 | 0.0 | 0.00 | 0.00 | 0.00 | 62 | 1019.0 |
| 20260906035000 | 12 | 215 | 0.0 | 0.0 | 0.00 | 0.00 | 0.00 | 60 | 1019.0 |
| 20260906034001 | 12 | 213 | 0.0 | 0.0 | 0.00 | 0.00 | 0.00 | 59 | 1019.0 |
| 20260906033001 | 12 | 227 | 0.0 | 0.0 | 0.00 | 0.00 | 0.00 | 60 | 1019.0 |
| 20260906032000 | 12 | 170 | 0.0 | 0.0 | 0.00 | 0.00 | 0.00 | 59 | 1019.0 |
| 20260906031000 | 12 | 112 | 0.0 | 0.0 | 0.00 | 0.00 | 0.03 | 58 | 1019.0 |
| 20260906030001 | 12 | 303 | 0.0 | 0.0 | 0.00 | 0.00 | 0.03 | 58 | 1019.0 |
| 20260906025000 | 12 | 334 | 0.0 | 0.0 | 0.00 | 0.00 | 0.03 | 58 | 1019.0 |
| 20260906024000 | 13 | 306 | 0.0 | 0.0 | 0.00 | 0.00 | 0.03 | 59 | 1019.0 |
| 20260906023000 | 13 | 246 | 0.0 | 0.0 | 0.00 | 0.00 | 0.03 | 58 | 1019.0 |
| 20260906022001 | 13 | 171 | 0.0 | 0.0 | 0.00 | 0.00 | 0.03 | 58 | 1019.0 |
| 20260906021000 | 13 | 200 | 0.0 | 0.0 | 0.00 | 0.00 | 0.03 | 58 | 1019.0 |
| 20260906020001 | 13 | 20 | 0.0 | 0.0 | 0.00 | 0.00 | 0.03 | 56 | 1019.0 |
| 20260906015000 | 13 | 229 | 0.0 | 0.0 | 0.00 | 0.00 | 0.03 | 57 | 1019.0 |
| 20260906014000 | 13 | 17 | 0.0 | 0.0 | 0.00 | 0.00 | 0.03 | 57 | 1019.0 |
| 20260906013000 | 13 | 15 | 0.0 | 0.0 | 0.00 | 0.00 | 0.03 | 58 | 1019.0 |
| 20260906012000 | 13 | 195 | 0.0 | 0.0 | 0.00 | 0.00 | 0.03 | 58 | 1019.0 |
| 20260906011000 | 13 | 231 | 0.0 | 0.0 | 0.00 | 0.00 | 0.03 | 55 | 1019.0 |
| 20260906010001 | 13 | 131 | 0.0 | 0.0 | 0.00 | 0.00 | 0.03 | 57 | 1019.0 |
| 20260906005000 | 13 | 28 | 0.0 | 0.0 | 0.03 | 0.00 | 0.03 | 59 | 1019.0 |
| 20260906004001 | 15 | 11 | 0.0 | 0.0 | 0.03 | 0.00 | 0.03 | 56 | 1019.0 |
| 20260906003001 | 15 | 247 | 0.0 | 0.0 | 0.03 | 0.00 | 0.03 | 54 | 1019.0 |
| 20260906002000 | 15 | 304 | 0.0 | 0.0 | 0.03 | 0.00 | 0.03 | 54 | 1019.0 |
| 20260906001001 | 15 | 346 | 0.0 | 0.0 | 0.00 | 0.00 | 0.00 | 55 | 1019.0 |
| 20260906000001 | 15 | 23 | 0.0 | 0.0 | 0.00 | 0.00 | 0.00 | 64 | 1019.0 |
| 20260905235000 | 15 | 63 | 0.0 | 0.0 | 0.00 | 0.00 | 0.00 | 52 | 1019.0 |
| 20260905234000 | 15 | 329 | 0.0 | 0.0 | 0.00 | 0.00 | 0.00 | 50 | 1019.0 |
| 20260905233001 | 15 | 220 | 0.0 | 0.0 | 0.00 | 0.00 | 0.00 | 49 | 1019.0 |
| 20260905232001 | 15 | 9 | 0.0 | 0.0 | 0.00 | 0.00 | 0.00 | 48 | 1019.0 |
| 20260905231001 | 15 | 149 | 0.0 | 0.0 | 0.00 | 0.00 | 0.00 | 50 | 1019.0 |
| 20260905230001 | 15 | 236 | 0.0 | 0.0 | 0.00 | 0.00 | 0.00 | 49 | 1019.0 |
| 20260905225000 | 15 | 253 | 0.0 | 0.0 | 0.00 | 0.00 | 0.00 | 49 | 1019.0 |
| 20260905224000 | 16 | 33 | 0.0 | 0.0 | 0.00 | 0.00 | 0.00 | 49 | 1019.0 |
| 20260905223000 | 16 | 91 | 0.0 | 0.0 | 0.00 | 0.00 | 0.00 | 48 | 1019.0 |
| 20260905222000 | 16 | 309 | 0.0 | 0.0 | 0.00 | 0.00 | 0.00 | 48 | 1019.0 |
| 20260905221000 | 16 | 320 | 0.0 | 0.0 | 0.00 | 0.00 | 0.00 | 47 | 1019.0 |
| 20260905220001 | 16 | 191 | 0.0 | 0.0 | 0.00 | 0.00 | 0.00 | 47 | 1019.0 |
| 20260905215000 | 16 | 171 | 0.0 | 0.0 | 0.00 | 0.00 | 0.00 | 47 | 1019.0 |
| 20260905214000 | 16 | 192 | 0.0 | 0.0 | 0.00 | 0.00 | 0.00 | 47 | 1019.0 |
| 20260905213001 | 16 | 27 | 0.0 | 0.0 | 0.00 | 0.00 | 0.00 | 46 | 1019.0 |
| 20260905212001 | 16 | 336 | 0.0 | 0.0 | 0.00 | 0.00 | 0.00 | 47 | 1019.0 |
| 20260905211000 | 16 | 327 | 0.0 | 0.0 | 0.00 | 0.00 | 0.00 | 46 | 1019.0 |
| 20260905210001 | 16 | 339 | 0.0 | 0.0 | 0.00 | 0.00 | 0.00 | 46 | 1019.0 |
| 20260905205000 | 16 | 83 | 0.0 | 0.0 | 0.00 | 0.00 | 0.00 | 45 | 1019.0 |
| 20260905204001 | 17 | 295 | 0.0 | 0.0 | 0.00 | 0.00 | 0.00 | 46 | 1019.0 |
| 20260905203001 | 17 | 247 | 0.0 | 0.0 | 0.00 | 0.00 | 0.00 | 45 | 1019.0 |
| 20260905202000 | 17 | 113 | 0.0 | 0.0 | 0.00 | 0.00 | 0.00 | 44 | 1019.0 |
| 20260905201000 | 17 | 192 | 0.0 | 0.0 | 0.00 | 0.00 | 0.00 | 44 | 1019.0 |
| 20260905200000 | 17 | 235 | 0.0 | 0.0 | 0.00 | 0.00 | 0.00 | 43 | 1019.0 |
| 20260905195000 | 18 | 213 | 0.0 | 0.0 | 0.00 | 0.00 | 0.00 | 43 | 1019.0 |
| 20260905194000 | 18 | 297 | 0.0 | 0.0 | 0.00 | 0.00 | 0.00 | 43 | 1019.0 |
| 20260905193000 | 18 | 244 | 0.0 | 0.0 | 0.00 | 0.00 | 0.00 | 42 | 1019.0 |
| 20260905192618 | 18 | 283 | 0.0 | 0.0 | 0.00 | 0.00 | 0.00 | 42 | 1019.0 |
| 20260905192000 | 18 | 84 | 0.0 | 0.0 | 0.00 | 0.00 | 0.00 | 42 | 1019.0 |
| 20260905191000 | 18 | 132 | 0.0 | 0.0 | 0.00 | 0.00 | 0.00 | 42 | 1018.5 |
| 20260905190000 | 18 | 42 | 0.0 | 0.0 | 0.00 | 0.00 | 0.00 | 42 | 1018.5 |
| 20260905185000 | 19 | 217 | 0.0 | 0.0 | 0.00 | 0.00 | 0.00 | 41 | 1018.5 |
| 20260905184000 | 19 | 235 | 0.0 | 3.2 | 0.00 | 0.00 | 0.00 | 41 | 1018.5 |
| 20260905183000 | 19 | 2 | 1.6 | 3.2 | 0.00 | 0.00 | 0.00 | 40 | 1018.5 |
| 20260905182001 | 19 | 172 | 0.0 | 0.0 | 0.00 | 0.00 | 0.00 | 40 | 1018.0 |
| 20260905181000 | 19 | 231 | 0.0 | 3.2 | 0.00 | 0.00 | 0.00 | 39 | 1018.0 |
| 20260905180001 | 19 | 256 | 3.2 | 4.8 | 0.00 | 0.00 | 0.00 | 40 | 1018.0 |
| 20260905175000 | 20 | 5 | 0.0 | 3.2 | 0.00 | 0.00 | 0.00 | 40 | 1018.0 |
| 20260905174000 | 20 | 62 | 1.6 | 3.2 | 0.00 | 0.00 | 0.00 | 39 | 1018.0 |
| 20260905173001 | 20 | 91 | 0.0 | 3.2 | 0.00 | 0.00 | 0.00 | 38 | 1018.0 |
| 20260905172001 | 20 | 149 | 0.0 | 4.8 | 0.00 | 0.00 | 0.00 | 38 | 1018.0 |
| 20260905171000 | 21 | 186 | 0.0 | 4.8 | 0.00 | 0.00 | 0.00 | 38 | 1018.0 |
| 20260905170001 | 21 | 247 | 0.0 | 4.8 | 0.00 | 0.00 | 0.00 | 37 | 1018.0 |
| 20260905165000 | 21 | 32 | 3.2 | 3.2 | 0.00 | 0.00 | 0.00 | 38 | 1018.0 |
| 20260905164000 | 21 | 171 | 0.0 | 0.0 | 0.00 | 0.00 | 0.00 | 37 | 1018.0 |
| 20260905163000 | 22 | 126 | 0.0 | 0.0 | 0.00 | 0.00 | 0.00 | 36 | 1018.0 |
| 20260905162000 | 22 | 289 | 1.6 | 4.8 | 0.00 | 0.00 | 0.00 | 36 | 1018.0 |
| 20260905161000 | 23 | 13 | 4.8 | 4.8 | 0.00 | 0.00 | 0.00 | 36 | 1018.0 |
| 20260905160000 | 23 | 1 | 0.0 | 0.0 | 0.00 | 0.00 | 0.00 | 36 | 1018.0 |
| 20260905155001 | 23 | 281 | 0.0 | 0.0 | 0.00 | 0.00 | 0.00 | 35 | 1018.0 |
| 20260905154000 | 24 | 281 | 0.0 | 1.6 | 0.00 | 0.00 | 0.00 | 34 | 1018.0 |
| 20260905153001 | 24 | 64 | 0.0 | 0.0 | 0.00 | 0.00 | 0.00 | 34 | 1018.0 |
| 20260905152001 | 24 | 279 | 0.0 | 3.2 | 0.00 | 0.00 | 0.00 | 32 | 1018.0 |
| 20260905151000 | 25 | 218 | 0.0 | 0.0 | 0.00 | 0.00 | 0.00 | 33 | 1018.0 |
| 20260905150000 | 25 | 242 | 0.0 | 4.8 | 0.00 | 0.00 | 0.00 | 33 | 1018.0 |
| 20260905145000 | 25 | 205 | 1.6 | 8.0 | 0.00 | 0.00 | 0.00 | 33 | 1018.0 |
| 20260905144000 | 25 | 257 | 6.4 | 8.0 | 0.00 | 0.00 | 0.00 | 33 | 1018.0 |
| 20260905143000 | 26 | 206 | 3.2 | 6.4 | 0.00 | 0.00 | 0.00 | 33 | 1018.0 |
| 20260905142001 | 26 | 247 | 1.6 | 8.0 | 0.00 | 0.00 | 0.00 | 31 | 1018.0 |
| 20260905141000 | 26 | 257 | 6.4 | 9.7 | 0.00 | 0.00 | 0.00 | 32 | 1018.0 |
| 20260905140001 | 26 | 0 | 0.0 | 0.0 | 0.00 | 0.00 | 0.00 | 33 | 1018.5 |
| 20260905135000 | 26 | 0 | 0.0 | 0.0 | 0.00 | 0.00 | 0.00 | 32 | 1018.5 |
| 20260905134001 | 27 | 0 | 0.0 | 0.0 | 0.00 | 0.00 | 0.00 | 32 | 1018.5 |
| 20260905133000 | 27 | 0 | 0.0 | 0.0 | 0.00 | 0.00 | 0.00 | 32 | 1018.5 |
| 20260905132000 | 27 | 0 | 0.0 | 0.0 | 0.00 | 0.00 | 0.00 | 29 | 1018.5 |
| 20260905131000 | 27 | 0 | 0.0 | 0.0 | 0.00 | 0.00 | 0.00 | 30 | 1019.0 |
| 20260905130001 | 27 | 0 | 0.0 | 0.0 | 0.00 | 0.00 | 0.00 | 31 | 1019.0 |
| 20260905125000 | 27 | 0 | 0.0 | 0.0 | 0.00 | 0.00 | 0.00 | 32 | 1019.0 |
| 20260905124000 | 27 | 0 | 0.0 | 0.0 | 0.00 | 0.00 | 0.00 | 31 | 1019.0 |
| 20260905123001 | 27 | 0 | 0.0 | 0.0 | 0.00 | 0.00 | 0.00 | 31 | 1019.0 |
| 20260905122000 | 27 | 0 | 0.0 | 0.0 | 0.00 | 0.00 | 0.00 | 31 | 1020.0 |
| 20260905121001 | 27 | 0 | 0.0 | 0.0 | 0.00 | 0.00 | 0.00 | 31 | 1020.0 |
| 20260905120001 | 27 | 0 | 0.0 | 0.0 | 0.00 | 0.00 | 0.00 | 33 | 1020.0 |
| 20260905115000 | 27 | 0 | 0.0 | 0.0 | 0.00 | 0.00 | 0.00 | 32 | 1020.0 |
| 20260905114000 | 27 | 0 | 0.0 | 0.0 | 0.00 | 0.00 | 0.00 | 33 | 1020.0 |
| 20260905113000 | 27 | 0 | 0.0 | 0.0 | 0.00 | 0.00 | 0.00 | 33 | 1020.0 |